sensor_id;sensor_type;location;lat;lon;timestamp;P1;durP1;ratioP1;P2;durP2;ratioP2
32393;SDS011;18853;45.426;9.206;2023-12-28T00:02:01;52.00;;;39.97;;
32393;SDS011;18853;45.426;9.206;2023-12-28T00:04:27;53.80;;;40.05;;
32393;SDS011;18853;45.426;9.206;2023-12-28T00:06:53;50.67;;;39.85;;
32393;SDS011;18853;45.426;9.206;2023-12-28T00:09:18;53.28;;;40.78;;
32393;SDS011;18853;45.426;9.206;2023-12-28T00:11:44;56.17;;;40.65;;
32393;SDS011;18853;45.426;9.206;2023-12-28T00:14:10;51.55;;;40.55;;
32393;SDS011;18853;45.426;9.206;2023-12-28T00:16:35;51.67;;;39.90;;
32393;SDS011;18853;45.426;9.206;2023-12-28T00:19:02;56.72;;;40.97;;
32393;SDS011;18853;45.426;9.206;2023-12-28T00:21:31;53.10;;;40.72;;
32393;SDS011;18853;45.426;9.206;2023-12-28T00:23:57;50.88;;;39.13;;
32393;SDS011;18853;45.426;9.206;2023-12-28T00:26:23;52.33;;;40.50;;
32393;SDS011;18853;45.426;9.206;2023-12-28T00:28:49;49.03;;;40.42;;
32393;SDS011;18853;45.426;9.206;2023-12-28T00:31:14;49.38;;;39.47;;
32393;SDS011;18853;45.426;9.206;2023-12-28T00:33:40;50.03;;;38.75;;
32393;SDS011;18853;45.426;9.206;2023-12-28T00:36:05;54.70;;;40.33;;
32393;SDS011;18853;45.426;9.206;2023-12-28T00:38:31;53.75;;;39.85;;
32393;SDS011;18853;45.426;9.206;2023-12-28T00:40:57;56.63;;;41.42;;
32393;SDS011;18853;45.426;9.206;2023-12-28T00:43:22;51.72;;;41.40;;
32393;SDS011;18853;45.426;9.206;2023-12-28T00:45:48;52.05;;;41.13;;
32393;SDS011;18853;45.426;9.206;2023-12-28T00:48:14;52.75;;;41.85;;
32393;SDS011;18853;45.426;9.206;2023-12-28T00:50:39;53.83;;;40.95;;
32393;SDS011;18853;45.426;9.206;2023-12-28T00:53:06;55.55;;;41.00;;
32393;SDS011;18853;45.426;9.206;2023-12-28T00:55:31;51.58;;;40.03;;
32393;SDS011;18853;45.426;9.206;2023-12-28T00:57:57;54.42;;;42.20;;
32393;SDS011;18853;45.426;9.206;2023-12-28T01:00:22;51.67;;;39.45;;
32393;SDS011;18853;45.426;9.206;2023-12-28T01:02:48;51.00;;;39.58;;
32393;SDS011;18853;45.426;9.206;2023-12-28T01:05:14;52.80;;;41.55;;
32393;SDS011;18853;45.426;9.206;2023-12-28T01:07:40;50.65;;;39.95;;
32393;SDS011;18853;45.426;9.206;2023-12-28T01:10:06;51.17;;;40.13;;
32393;SDS011;18853;45.426;9.206;2023-12-28T01:12:31;49.92;;;39.65;;
32393;SDS011;18853;45.426;9.206;2023-12-28T01:14:58;52.28;;;41.03;;
32393;SDS011;18853;45.426;9.206;2023-12-28T01:17:24;52.90;;;39.35;;
32393;SDS011;18853;45.426;9.206;2023-12-28T01:19:49;52.75;;;39.47;;
32393;SDS011;18853;45.426;9.206;2023-12-28T01:22:15;49.13;;;39.42;;
32393;SDS011;18853;45.426;9.206;2023-12-28T01:24:40;51.53;;;40.75;;
32393;SDS011;18853;45.426;9.206;2023-12-28T01:27:06;52.38;;;40.85;;
32393;SDS011;18853;45.426;9.206;2023-12-28T01:29:31;50.78;;;40.13;;
32393;SDS011;18853;45.426;9.206;2023-12-28T01:31:59;50.33;;;39.25;;
32393;SDS011;18853;45.426;9.206;2023-12-28T01:34:24;50.60;;;38.50;;
32393;SDS011;18853;45.426;9.206;2023-12-28T01:36:50;49.55;;;39.05;;
32393;SDS011;18853;45.426;9.206;2023-12-28T01:39:15;51.17;;;38.95;;
32393;SDS011;18853;45.426;9.206;2023-12-28T01:41:43;49.75;;;38.45;;
32393;SDS011;18853;45.426;9.206;2023-12-28T01:44:10;49.88;;;39.58;;
32393;SDS011;18853;45.426;9.206;2023-12-28T01:46:36;53.75;;;39.53;;
32393;SDS011;18853;45.426;9.206;2023-12-28T01:49:01;51.45;;;40.00;;
32393;SDS011;18853;45.426;9.206;2023-12-28T01:51:28;51.38;;;41.25;;
32393;SDS011;18853;45.426;9.206;2023-12-28T01:53:54;51.20;;;39.78;;
32393;SDS011;18853;45.426;9.206;2023-12-28T01:56:20;55.92;;;39.88;;
32393;SDS011;18853;45.426;9.206;2023-12-28T01:58:46;53.83;;;40.08;;
32393;SDS011;18853;45.426;9.206;2023-12-28T02:01:14;51.88;;;39.85;;
32393;SDS011;18853;45.426;9.206;2023-12-28T02:03:40;50.10;;;38.97;;
32393;SDS011;18853;45.426;9.206;2023-12-28T02:06:06;52.70;;;40.17;;
32393;SDS011;18853;45.426;9.206;2023-12-28T02:08:32;54.00;;;41.13;;
32393;SDS011;18853;45.426;9.206;2023-12-28T02:10:58;50.75;;;40.25;;
32393;SDS011;18853;45.426;9.206;2023-12-28T02:13:24;50.35;;;39.72;;
32393;SDS011;18853;45.426;9.206;2023-12-28T02:15:58;50.00;;;40.35;;
32393;SDS011;18853;45.426;9.206;2023-12-28T02:18:34;50.10;;;39.00;;
32393;SDS011;18853;45.426;9.206;2023-12-28T02:21:08;50.70;;;40.53;;
32393;SDS011;18853;45.426;9.206;2023-12-28T02:23:35;53.65;;;39.50;;
32393;SDS011;18853;45.426;9.206;2023-12-28T02:26:01;51.15;;;39.70;;
32393;SDS011;18853;45.426;9.206;2023-12-28T02:28:26;50.70;;;40.83;;
32393;SDS011;18853;45.426;9.206;2023-12-28T02:30:52;48.97;;;38.83;;
32393;SDS011;18853;45.426;9.206;2023-12-28T02:33:25;51.33;;;39.55;;
32393;SDS011;18853;45.426;9.206;2023-12-28T02:36:01;54.22;;;40.65;;
32393;SDS011;18853;45.426;9.206;2023-12-28T02:38:30;46.60;;;38.05;;
32393;SDS011;18853;45.426;9.206;2023-12-28T02:41:00;47.97;;;39.70;;
32393;SDS011;18853;45.426;9.206;2023-12-28T02:43:27;48.83;;;37.92;;
32393;SDS011;18853;45.426;9.206;2023-12-28T02:45:52;54.30;;;39.75;;
32393;SDS011;18853;45.426;9.206;2023-12-28T02:48:18;49.38;;;39.67;;
32393;SDS011;18853;45.426;9.206;2023-12-28T02:50:43;51.88;;;39.60;;
32393;SDS011;18853;45.426;9.206;2023-12-28T02:53:09;54.05;;;39.83;;
32393;SDS011;18853;45.426;9.206;2023-12-28T02:55:35;51.95;;;39.63;;
32393;SDS011;18853;45.426;9.206;2023-12-28T02:58:00;52.72;;;40.67;;
32393;SDS011;18853;45.426;9.206;2023-12-28T03:00:26;52.47;;;39.22;;
32393;SDS011;18853;45.426;9.206;2023-12-28T03:02:52;49.10;;;38.35;;
32393;SDS011;18853;45.426;9.206;2023-12-28T03:05:18;54.28;;;40.47;;
32393;SDS011;18853;45.426;9.206;2023-12-28T03:07:44;52.97;;;40.33;;
32393;SDS011;18853;45.426;9.206;2023-12-28T03:10:10;55.33;;;40.35;;
32393;SDS011;18853;45.426;9.206;2023-12-28T03:12:36;57.22;;;40.90;;
32393;SDS011;18853;45.426;9.206;2023-12-28T03:15:02;53.15;;;41.05;;
32393;SDS011;18853;45.426;9.206;2023-12-28T03:17:28;49.72;;;38.85;;
32393;SDS011;18853;45.426;9.206;2023-12-28T03:19:55;55.92;;;40.78;;
32393;SDS011;18853;45.426;9.206;2023-12-28T03:22:24;52.47;;;39.80;;
32393;SDS011;18853;45.426;9.206;2023-12-28T03:24:50;52.28;;;40.42;;
32393;SDS011;18853;45.426;9.206;2023-12-28T03:27:16;54.85;;;41.08;;
32393;SDS011;18853;45.426;9.206;2023-12-28T03:29:41;51.25;;;40.13;;
32393;SDS011;18853;45.426;9.206;2023-12-28T03:32:08;53.63;;;41.53;;
32393;SDS011;18853;45.426;9.206;2023-12-28T03:34:33;53.05;;;41.17;;
32393;SDS011;18853;45.426;9.206;2023-12-28T03:36:59;51.20;;;40.50;;
32393;SDS011;18853;45.426;9.206;2023-12-28T03:39:25;52.17;;;40.85;;
32393;SDS011;18853;45.426;9.206;2023-12-28T03:41:51;50.47;;;39.20;;
32393;SDS011;18853;45.426;9.206;2023-12-28T03:44:20;50.90;;;38.80;;
32393;SDS011;18853;45.426;9.206;2023-12-28T03:46:47;49.28;;;38.42;;
32393;SDS011;18853;45.426;9.206;2023-12-28T03:49:19;48.63;;;37.83;;
32393;SDS011;18853;45.426;9.206;2023-12-28T03:51:46;55.05;;;40.28;;
32393;SDS011;18853;45.426;9.206;2023-12-28T03:54:17;53.40;;;41.08;;
32393;SDS011;18853;45.426;9.206;2023-12-28T03:56:43;50.40;;;39.83;;
32393;SDS011;18853;45.426;9.206;2023-12-28T03:59:10;52.20;;;38.97;;
32393;SDS011;18853;45.426;9.206;2023-12-28T04:01:36;54.83;;;39.15;;
32393;SDS011;18853;45.426;9.206;2023-12-28T04:04:01;55.00;;;41.28;;
32393;SDS011;18853;45.426;9.206;2023-12-28T04:06:27;50.22;;;39.47;;
32393;SDS011;18853;45.426;9.206;2023-12-28T04:08:53;47.00;;;39.08;;
32393;SDS011;18853;45.426;9.206;2023-12-28T04:11:18;50.80;;;38.50;;
32393;SDS011;18853;45.426;9.206;2023-12-28T04:13:44;49.95;;;38.22;;
32393;SDS011;18853;45.426;9.206;2023-12-28T04:16:13;50.50;;;39.00;;
32393;SDS011;18853;45.426;9.206;2023-12-28T04:18:42;48.67;;;37.65;;
32393;SDS011;18853;45.426;9.206;2023-12-28T04:21:09;45.30;;;37.45;;
32393;SDS011;18853;45.426;9.206;2023-12-28T04:23:36;49.47;;;37.58;;
32393;SDS011;18853;45.426;9.206;2023-12-28T04:26:02;48.17;;;37.22;;
32393;SDS011;18853;45.426;9.206;2023-12-28T04:28:28;48.88;;;37.45;;
32393;SDS011;18853;45.426;9.206;2023-12-28T04:30:53;50.33;;;37.75;;
32393;SDS011;18853;45.426;9.206;2023-12-28T04:33:19;51.00;;;37.53;;
32393;SDS011;18853;45.426;9.206;2023-12-28T04:35:45;50.75;;;38.08;;
32393;SDS011;18853;45.426;9.206;2023-12-28T04:38:10;49.53;;;38.00;;
32393;SDS011;18853;45.426;9.206;2023-12-28T04:40:36;49.78;;;37.67;;
32393;SDS011;18853;45.426;9.206;2023-12-28T04:43:02;47.97;;;38.53;;
32393;SDS011;18853;45.426;9.206;2023-12-28T04:45:28;45.92;;;38.47;;
32393;SDS011;18853;45.426;9.206;2023-12-28T04:47:53;52.10;;;39.17;;
32393;SDS011;18853;45.426;9.206;2023-12-28T04:50:19;48.85;;;38.65;;
32393;SDS011;18853;45.426;9.206;2023-12-28T04:52:44;52.22;;;39.15;;
32393;SDS011;18853;45.426;9.206;2023-12-28T04:55:10;52.08;;;37.42;;
32393;SDS011;18853;45.426;9.206;2023-12-28T04:57:36;49.92;;;37.90;;
32393;SDS011;18853;45.426;9.206;2023-12-28T05:00:01;47.78;;;38.95;;
32393;SDS011;18853;45.426;9.206;2023-12-28T05:02:28;47.53;;;38.30;;
32393;SDS011;18853;45.426;9.206;2023-12-28T05:04:53;53.03;;;38.55;;
32393;SDS011;18853;45.426;9.206;2023-12-28T05:07:19;49.25;;;39.80;;
32393;SDS011;18853;45.426;9.206;2023-12-28T05:09:44;49.55;;;38.38;;
32393;SDS011;18853;45.426;9.206;2023-12-28T05:12:10;48.35;;;37.63;;
32393;SDS011;18853;45.426;9.206;2023-12-28T05:14:35;48.58;;;38.20;;
32393;SDS011;18853;45.426;9.206;2023-12-28T05:17:01;48.38;;;38.50;;
32393;SDS011;18853;45.426;9.206;2023-12-28T05:19:27;47.13;;;35.90;;
32393;SDS011;18853;45.426;9.206;2023-12-28T05:21:52;48.10;;;38.78;;
32393;SDS011;18853;45.426;9.206;2023-12-28T05:24:18;48.08;;;37.65;;
32393;SDS011;18853;45.426;9.206;2023-12-28T05:26:43;47.33;;;37.58;;
32393;SDS011;18853;45.426;9.206;2023-12-28T05:29:09;49.17;;;38.47;;
32393;SDS011;18853;45.426;9.206;2023-12-28T05:31:34;53.97;;;40.13;;
32393;SDS011;18853;45.426;9.206;2023-12-28T05:34:00;50.00;;;40.03;;
32393;SDS011;18853;45.426;9.206;2023-12-28T05:36:25;55.08;;;39.28;;
32393;SDS011;18853;45.426;9.206;2023-12-28T05:38:51;51.63;;;40.38;;
32393;SDS011;18853;45.426;9.206;2023-12-28T05:41:17;53.35;;;40.17;;
32393;SDS011;18853;45.426;9.206;2023-12-28T05:43:42;50.75;;;39.33;;
32393;SDS011;18853;45.426;9.206;2023-12-28T05:46:08;50.53;;;38.80;;
32393;SDS011;18853;45.426;9.206;2023-12-28T05:48:33;49.75;;;38.88;;
32393;SDS011;18853;45.426;9.206;2023-12-28T05:50:59;51.97;;;40.30;;
32393;SDS011;18853;45.426;9.206;2023-12-28T05:53:25;53.13;;;41.13;;
32393;SDS011;18853;45.426;9.206;2023-12-28T05:55:52;51.70;;;39.10;;
32393;SDS011;18853;45.426;9.206;2023-12-28T05:58:18;50.70;;;39.28;;
32393;SDS011;18853;45.426;9.206;2023-12-28T06:00:44;50.13;;;38.42;;
32393;SDS011;18853;45.426;9.206;2023-12-28T06:03:11;48.53;;;39.63;;
32393;SDS011;18853;45.426;9.206;2023-12-28T06:05:37;50.40;;;39.50;;
32393;SDS011;18853;45.426;9.206;2023-12-28T06:08:02;50.35;;;39.80;;
32393;SDS011;18853;45.426;9.206;2023-12-28T06:10:28;48.25;;;38.90;;
32393;SDS011;18853;45.426;9.206;2023-12-28T06:12:54;47.03;;;39.83;;
32393;SDS011;18853;45.426;9.206;2023-12-28T06:15:20;52.03;;;39.83;;
32393;SDS011;18853;45.426;9.206;2023-12-28T06:17:45;50.70;;;40.75;;
32393;SDS011;18853;45.426;9.206;2023-12-28T06:20:11;52.15;;;39.88;;
32393;SDS011;18853;45.426;9.206;2023-12-28T06:22:36;51.72;;;39.53;;
32393;SDS011;18853;45.426;9.206;2023-12-28T06:25:02;48.20;;;38.03;;
32393;SDS011;18853;45.426;9.206;2023-12-28T06:27:28;48.28;;;38.17;;
32393;SDS011;18853;45.426;9.206;2023-12-28T06:29:54;48.80;;;38.72;;
32393;SDS011;18853;45.426;9.206;2023-12-28T06:32:20;49.47;;;38.63;;
32393;SDS011;18853;45.426;9.206;2023-12-28T06:34:45;48.38;;;38.72;;
32393;SDS011;18853;45.426;9.206;2023-12-28T06:37:11;48.38;;;38.08;;
32393;SDS011;18853;45.426;9.206;2023-12-28T06:39:37;51.55;;;38.63;;
32393;SDS011;18853;45.426;9.206;2023-12-28T06:42:04;46.83;;;37.03;;
32393;SDS011;18853;45.426;9.206;2023-12-28T06:44:30;51.58;;;38.28;;
32393;SDS011;18853;45.426;9.206;2023-12-28T06:46:59;49.58;;;38.80;;
32393;SDS011;18853;45.426;9.206;2023-12-28T06:49:25;48.63;;;38.38;;
32393;SDS011;18853;45.426;9.206;2023-12-28T06:51:50;48.80;;;38.15;;
32393;SDS011;18853;45.426;9.206;2023-12-28T06:54:16;54.70;;;39.35;;
32393;SDS011;18853;45.426;9.206;2023-12-28T06:56:42;48.63;;;37.63;;
32393;SDS011;18853;45.426;9.206;2023-12-28T06:59:08;48.30;;;38.50;;
32393;SDS011;18853;45.426;9.206;2023-12-28T07:01:37;52.00;;;37.47;;
32393;SDS011;18853;45.426;9.206;2023-12-28T07:04:03;50.22;;;37.15;;
32393;SDS011;18853;45.426;9.206;2023-12-28T07:06:29;52.72;;;38.85;;
32393;SDS011;18853;45.426;9.206;2023-12-28T07:08:55;44.20;;;37.47;;
32393;SDS011;18853;45.426;9.206;2023-12-28T07:11:20;50.53;;;37.45;;
32393;SDS011;18853;45.426;9.206;2023-12-28T07:13:46;45.67;;;36.83;;
32393;SDS011;18853;45.426;9.206;2023-12-28T07:16:12;47.53;;;36.75;;
32393;SDS011;18853;45.426;9.206;2023-12-28T07:18:37;49.88;;;37.40;;
32393;SDS011;18853;45.426;9.206;2023-12-28T07:21:03;45.17;;;36.10;;
32393;SDS011;18853;45.426;9.206;2023-12-28T07:23:29;47.28;;;35.92;;
32393;SDS011;18853;45.426;9.206;2023-12-28T07:25:55;51.22;;;36.30;;
32393;SDS011;18853;45.426;9.206;2023-12-28T07:28:20;44.65;;;36.03;;
32393;SDS011;18853;45.426;9.206;2023-12-28T07:30:46;46.42;;;36.25;;
32393;SDS011;18853;45.426;9.206;2023-12-28T07:33:12;53.03;;;36.97;;
32393;SDS011;18853;45.426;9.206;2023-12-28T07:35:37;50.95;;;36.88;;
32393;SDS011;18853;45.426;9.206;2023-12-28T07:38:03;44.22;;;36.33;;
32393;SDS011;18853;45.426;9.206;2023-12-28T07:40:28;46.10;;;36.25;;
32393;SDS011;18853;45.426;9.206;2023-12-28T07:42:54;50.88;;;37.10;;
32393;SDS011;18853;45.426;9.206;2023-12-28T07:45:19;44.80;;;35.38;;
32393;SDS011;18853;45.426;9.206;2023-12-28T07:47:48;49.78;;;36.22;;
32393;SDS011;18853;45.426;9.206;2023-12-28T07:50:15;45.08;;;35.50;;
32393;SDS011;18853;45.426;9.206;2023-12-28T07:52:41;45.92;;;36.03;;
32393;SDS011;18853;45.426;9.206;2023-12-28T07:55:07;49.35;;;35.40;;
32393;SDS011;18853;45.426;9.206;2023-12-28T07:57:34;48.70;;;35.88;;
32393;SDS011;18853;45.426;9.206;2023-12-28T08:00:00;45.85;;;35.80;;
32393;SDS011;18853;45.426;9.206;2023-12-28T08:02:26;49.15;;;35.97;;
32393;SDS011;18853;45.426;9.206;2023-12-28T08:04:52;47.83;;;35.28;;
32393;SDS011;18853;45.426;9.206;2023-12-28T08:07:18;46.33;;;35.30;;
32393;SDS011;18853;45.426;9.206;2023-12-28T08:09:43;43.75;;;33.90;;
32393;SDS011;18853;45.426;9.206;2023-12-28T08:12:09;43.80;;;34.25;;
32393;SDS011;18853;45.426;9.206;2023-12-28T08:14:34;42.53;;;33.47;;
32393;SDS011;18853;45.426;9.206;2023-12-28T08:17:03;45.97;;;32.85;;
32393;SDS011;18853;45.426;9.206;2023-12-28T08:19:29;39.90;;;31.70;;
32393;SDS011;18853;45.426;9.206;2023-12-28T08:21:54;42.13;;;32.67;;
32393;SDS011;18853;45.426;9.206;2023-12-28T08:24:20;43.97;;;32.58;;
32393;SDS011;18853;45.426;9.206;2023-12-28T08:26:46;40.78;;;32.72;;
32393;SDS011;18853;45.426;9.206;2023-12-28T08:29:12;40.78;;;32.13;;
32393;SDS011;18853;45.426;9.206;2023-12-28T08:31:38;41.63;;;31.48;;
32393;SDS011;18853;45.426;9.206;2023-12-28T08:34:03;44.83;;;32.25;;
32393;SDS011;18853;45.426;9.206;2023-12-28T08:36:29;42.17;;;32.47;;
32393;SDS011;18853;45.426;9.206;2023-12-28T08:38:54;39.58;;;32.83;;
32393;SDS011;18853;45.426;9.206;2023-12-28T08:41:20;46.97;;;32.33;;
32393;SDS011;18853;45.426;9.206;2023-12-28T08:43:49;39.05;;;32.95;;
32393;SDS011;18853;45.426;9.206;2023-12-28T08:46:15;43.75;;;31.88;;
32393;SDS011;18853;45.426;9.206;2023-12-28T08:48:41;41.25;;;32.03;;
32393;SDS011;18853;45.426;9.206;2023-12-28T08:51:07;46.92;;;33.72;;
32393;SDS011;18853;45.426;9.206;2023-12-28T08:53:34;47.10;;;33.17;;
32393;SDS011;18853;45.426;9.206;2023-12-28T08:55:59;45.70;;;32.40;;
32393;SDS011;18853;45.426;9.206;2023-12-28T08:58:25;45.35;;;31.80;;
32393;SDS011;18853;45.426;9.206;2023-12-28T09:00:50;40.80;;;31.02;;
32393;SDS011;18853;45.426;9.206;2023-12-28T09:03:16;38.78;;;29.55;;
32393;SDS011;18853;45.426;9.206;2023-12-28T09:05:42;35.53;;;29.30;;
32393;SDS011;18853;45.426;9.206;2023-12-28T09:08:08;38.90;;;29.30;;
32393;SDS011;18853;45.426;9.206;2023-12-28T09:10:33;38.67;;;28.73;;
32393;SDS011;18853;45.426;9.206;2023-12-28T09:12:59;42.78;;;29.48;;
32393;SDS011;18853;45.426;9.206;2023-12-28T09:15:25;38.13;;;28.73;;
32393;SDS011;18853;45.426;9.206;2023-12-28T09:17:50;37.28;;;27.58;;
32393;SDS011;18853;45.426;9.206;2023-12-28T09:20:17;37.10;;;27.80;;
32393;SDS011;18853;45.426;9.206;2023-12-28T09:22:43;38.78;;;28.60;;
32393;SDS011;18853;45.426;9.206;2023-12-28T09:25:10;38.40;;;28.05;;
32393;SDS011;18853;45.426;9.206;2023-12-28T09:27:36;36.67;;;26.63;;
32393;SDS011;18853;45.426;9.206;2023-12-28T09:30:02;36.75;;;26.25;;
32393;SDS011;18853;45.426;9.206;2023-12-28T09:32:28;34.75;;;25.85;;
32393;SDS011;18853;45.426;9.206;2023-12-28T09:34:55;36.25;;;25.65;;
32393;SDS011;18853;45.426;9.206;2023-12-28T09:37:20;34.65;;;24.83;;
32393;SDS011;18853;45.426;9.206;2023-12-28T09:39:46;35.95;;;25.98;;
32393;SDS011;18853;45.426;9.206;2023-12-28T09:42:24;34.88;;;24.17;;
32393;SDS011;18853;45.426;9.206;2023-12-28T09:44:54;35.70;;;25.00;;
32393;SDS011;18853;45.426;9.206;2023-12-28T09:47:19;32.83;;;24.70;;
32393;SDS011;18853;45.426;9.206;2023-12-28T09:49:45;34.80;;;24.58;;
32393;SDS011;18853;45.426;9.206;2023-12-28T09:52:12;39.63;;;25.20;;
32393;SDS011;18853;45.426;9.206;2023-12-28T09:54:37;35.60;;;25.02;;
32393;SDS011;18853;45.426;9.206;2023-12-28T09:57:03;34.50;;;25.23;;
32393;SDS011;18853;45.426;9.206;2023-12-28T09:59:30;33.95;;;24.42;;
32393;SDS011;18853;45.426;9.206;2023-12-28T10:01:58;33.50;;;23.25;;
32393;SDS011;18853;45.426;9.206;2023-12-28T10:04:26;37.10;;;24.05;;
32393;SDS011;18853;45.426;9.206;2023-12-28T10:06:54;31.30;;;22.25;;
32393;SDS011;18853;45.426;9.206;2023-12-28T10:09:20;29.08;;;23.42;;
32393;SDS011;18853;45.426;9.206;2023-12-28T10:11:46;31.33;;;22.42;;
32393;SDS011;18853;45.426;9.206;2023-12-28T10:14:13;32.45;;;23.50;;
32393;SDS011;18853;45.426;9.206;2023-12-28T10:16:42;34.63;;;23.13;;
32393;SDS011;18853;45.426;9.206;2023-12-28T10:19:08;33.28;;;24.55;;
32393;SDS011;18853;45.426;9.206;2023-12-28T10:21:33;32.55;;;23.60;;
32393;SDS011;18853;45.426;9.206;2023-12-28T10:23:59;30.75;;;23.90;;
32393;SDS011;18853;45.426;9.206;2023-12-28T10:26:25;32.08;;;24.00;;
32393;SDS011;18853;45.426;9.206;2023-12-28T10:28:56;29.30;;;23.13;;
32393;SDS011;18853;45.426;9.206;2023-12-28T10:31:28;34.90;;;22.67;;
32393;SDS011;18853;45.426;9.206;2023-12-28T10:33:57;34.13;;;25.38;;
32393;SDS011;18853;45.426;9.206;2023-12-28T10:36:24;36.78;;;26.95;;
32393;SDS011;18853;45.426;9.206;2023-12-28T10:38:53;31.50;;;25.75;;
32393;SDS011;18853;45.426;9.206;2023-12-28T10:41:19;34.22;;;28.13;;
32393;SDS011;18853;45.426;9.206;2023-12-28T10:43:50;38.75;;;27.65;;
32393;SDS011;18853;45.426;9.206;2023-12-28T10:46:28;34.97;;;27.25;;
32393;SDS011;18853;45.426;9.206;2023-12-28T10:49:03;35.78;;;26.73;;
32393;SDS011;18853;45.426;9.206;2023-12-28T10:51:33;36.03;;;26.55;;
32393;SDS011;18853;45.426;9.206;2023-12-28T10:56:59;33.13;;;26.27;;
32393;SDS011;18853;45.426;9.206;2023-12-28T10:59:35;38.63;;;27.45;;
32393;SDS011;18853;45.426;9.206;2023-12-28T11:02:14;38.72;;;27.20;;
32393;SDS011;18853;45.426;9.206;2023-12-28T11:04:47;35.05;;;26.35;;
32393;SDS011;18853;45.426;9.206;2023-12-28T11:07:15;35.13;;;26.23;;
32393;SDS011;18853;45.426;9.206;2023-12-28T11:09:43;33.67;;;26.75;;
32393;SDS011;18853;45.426;9.206;2023-12-28T11:12:09;36.72;;;27.17;;
32393;SDS011;18853;45.426;9.206;2023-12-28T11:14:35;35.13;;;27.63;;
32393;SDS011;18853;45.426;9.206;2023-12-28T11:17:04;38.75;;;26.83;;
32393;SDS011;18853;45.426;9.206;2023-12-28T11:19:32;31.27;;;25.90;;
32393;SDS011;18853;45.426;9.206;2023-12-28T11:21:59;34.53;;;25.50;;
32393;SDS011;18853;45.426;9.206;2023-12-28T11:24:27;34.92;;;25.25;;
32393;SDS011;18853;45.426;9.206;2023-12-28T11:26:54;35.67;;;24.70;;
32393;SDS011;18853;45.426;9.206;2023-12-28T11:29:20;33.05;;;24.17;;
32393;SDS011;18853;45.426;9.206;2023-12-28T11:31:53;29.65;;;24.25;;
32393;SDS011;18853;45.426;9.206;2023-12-28T11:34:19;29.58;;;23.10;;
32393;SDS011;18853;45.426;9.206;2023-12-28T11:36:51;33.30;;;23.83;;
32393;SDS011;18853;45.426;9.206;2023-12-28T11:39:41;30.70;;;22.80;;
32393;SDS011;18853;45.426;9.206;2023-12-28T11:42:08;32.20;;;22.92;;
32393;SDS011;18853;45.426;9.206;2023-12-28T11:44:38;28.70;;;22.30;;
32393;SDS011;18853;45.426;9.206;2023-12-28T11:47:14;29.85;;;23.02;;
32393;SDS011;18853;45.426;9.206;2023-12-28T11:49:40;30.48;;;22.80;;
32393;SDS011;18853;45.426;9.206;2023-12-28T11:52:06;30.30;;;24.02;;
32393;SDS011;18853;45.426;9.206;2023-12-28T11:54:33;33.22;;;24.75;;
32393;SDS011;18853;45.426;9.206;2023-12-28T11:56:58;29.92;;;23.48;;
32393;SDS011;18853;45.426;9.206;2023-12-28T11:59:24;29.58;;;23.13;;
32393;SDS011;18853;45.426;9.206;2023-12-28T12:01:50;33.78;;;23.77;;
32393;SDS011;18853;45.426;9.206;2023-12-28T12:04:17;31.80;;;23.42;;
32393;SDS011;18853;45.426;9.206;2023-12-28T12:06:44;32.50;;;23.77;;
32393;SDS011;18853;45.426;9.206;2023-12-28T12:09:11;29.58;;;23.58;;
32393;SDS011;18853;45.426;9.206;2023-12-28T12:11:37;32.97;;;23.05;;
32393;SDS011;18853;45.426;9.206;2023-12-28T12:14:03;30.63;;;24.05;;
32393;SDS011;18853;45.426;9.206;2023-12-28T12:16:34;30.75;;;23.27;;
32393;SDS011;18853;45.426;9.206;2023-12-28T12:19:00;32.38;;;23.85;;
32393;SDS011;18853;45.426;9.206;2023-12-28T12:21:26;31.23;;;23.63;;
32393;SDS011;18853;45.426;9.206;2023-12-28T12:23:52;27.88;;;22.98;;
32393;SDS011;18853;45.426;9.206;2023-12-28T12:26:19;29.05;;;22.58;;
32393;SDS011;18853;45.426;9.206;2023-12-28T12:28:46;36.28;;;24.20;;
32393;SDS011;18853;45.426;9.206;2023-12-28T12:31:12;32.83;;;24.48;;
32393;SDS011;18853;45.426;9.206;2023-12-28T12:33:37;31.88;;;23.35;;
32393;SDS011;18853;45.426;9.206;2023-12-28T12:36:05;33.75;;;24.35;;
32393;SDS011;18853;45.426;9.206;2023-12-28T12:38:33;30.48;;;24.23;;
32393;SDS011;18853;45.426;9.206;2023-12-28T12:40:59;32.30;;;24.70;;
32393;SDS011;18853;45.426;9.206;2023-12-28T12:43:25;34.03;;;25.27;;
32393;SDS011;18853;45.426;9.206;2023-12-28T12:45:51;30.63;;;23.88;;
32393;SDS011;18853;45.426;9.206;2023-12-28T12:48:17;31.05;;;23.83;;
32393;SDS011;18853;45.426;9.206;2023-12-28T12:50:43;31.95;;;23.67;;
32393;SDS011;18853;45.426;9.206;2023-12-28T12:53:09;32.65;;;23.77;;
32393;SDS011;18853;45.426;9.206;2023-12-28T12:55:36;38.70;;;25.48;;
32393;SDS011;18853;45.426;9.206;2023-12-28T12:58:04;35.08;;;25.05;;
32393;SDS011;18853;45.426;9.206;2023-12-28T13:00:30;31.63;;;23.95;;
32393;SDS011;18853;45.426;9.206;2023-12-28T13:02:58;34.40;;;22.83;;
32393;SDS011;18853;45.426;9.206;2023-12-28T13:05:24;30.63;;;22.90;;
32393;SDS011;18853;45.426;9.206;2023-12-28T13:07:50;30.30;;;22.85;;
32393;SDS011;18853;45.426;9.206;2023-12-28T13:10:16;26.48;;;21.13;;
32393;SDS011;18853;45.426;9.206;2023-12-28T13:12:42;26.58;;;21.80;;
32393;SDS011;18853;45.426;9.206;2023-12-28T13:15:08;28.52;;;21.33;;
32393;SDS011;18853;45.426;9.206;2023-12-28T13:17:35;28.67;;;22.77;;
32393;SDS011;18853;45.426;9.206;2023-12-28T13:20:01;32.45;;;22.65;;
32393;SDS011;18853;45.426;9.206;2023-12-28T13:22:28;28.65;;;21.63;;
32393;SDS011;18853;45.426;9.206;2023-12-28T13:24:54;27.02;;;20.90;;
32393;SDS011;18853;45.426;9.206;2023-12-28T13:27:19;27.02;;;21.25;;
32393;SDS011;18853;45.426;9.206;2023-12-28T13:29:45;27.58;;;21.42;;
32393;SDS011;18853;45.426;9.206;2023-12-28T13:32:10;28.40;;;21.80;;
32393;SDS011;18853;45.426;9.206;2023-12-28T13:34:36;29.73;;;22.17;;
32393;SDS011;18853;45.426;9.206;2023-12-28T13:37:01;27.27;;;21.30;;
32393;SDS011;18853;45.426;9.206;2023-12-28T13:39:28;24.95;;;21.05;;
32393;SDS011;18853;45.426;9.206;2023-12-28T13:41:54;32.50;;;22.55;;
32393;SDS011;18853;45.426;9.206;2023-12-28T13:44:20;28.35;;;21.52;;
32393;SDS011;18853;45.426;9.206;2023-12-28T13:46:45;30.95;;;21.58;;
32393;SDS011;18853;45.426;9.206;2023-12-28T13:49:11;29.23;;;21.40;;
32393;SDS011;18853;45.426;9.206;2023-12-28T13:51:37;27.88;;;22.20;;
32393;SDS011;18853;45.426;9.206;2023-12-28T13:54:02;27.08;;;21.52;;
32393;SDS011;18853;45.426;9.206;2023-12-28T13:56:28;30.10;;;21.92;;
32393;SDS011;18853;45.426;9.206;2023-12-28T13:58:53;30.90;;;22.10;;
32393;SDS011;18853;45.426;9.206;2023-12-28T14:01:19;28.55;;;21.80;;
32393;SDS011;18853;45.426;9.206;2023-12-28T14:03:45;30.20;;;21.75;;
32393;SDS011;18853;45.426;9.206;2023-12-28T14:06:13;29.73;;;22.10;;
32393;SDS011;18853;45.426;9.206;2023-12-28T14:08:39;29.50;;;22.52;;
32393;SDS011;18853;45.426;9.206;2023-12-28T14:11:04;31.95;;;22.50;;
32393;SDS011;18853;45.426;9.206;2023-12-28T14:13:30;27.80;;;21.15;;
32393;SDS011;18853;45.426;9.206;2023-12-28T14:15:56;29.42;;;22.38;;
32393;SDS011;18853;45.426;9.206;2023-12-28T14:18:22;26.73;;;20.98;;
32393;SDS011;18853;45.426;9.206;2023-12-28T14:20:47;29.83;;;21.75;;